sensor_id;sensor_type;location;lat;lon;timestamp;temperature;humidity
51914;DHT22;37940;53.002;6.930;2022-09-21T00:01:27;7.00;99.90
51914;DHT22;37940;53.002;6.930;2022-09-21T00:03:55;7.00;99.90
51914;DHT22;37940;53.002;6.930;2022-09-21T00:06:23;7.00;99.90
51914;DHT22;37940;53.002;6.930;2022-09-21T00:08:49;6.90;99.90
51914;DHT22;37940;53.002;6.930;2022-09-21T00:11:29;6.90;99.90
51914;DHT22;37940;53.002;6.930;2022-09-21T00:13:58;6.80;99.90
51914;DHT22;37940;53.002;6.930;2022-09-21T00:16:26;6.80;99.90
51914;DHT22;37940;53.002;6.930;2022-09-21T00:18:52;6.80;99.90
51914;DHT22;37940;53.002;6.930;2022-09-21T00:21:18;6.80;99.90
51914;DHT22;37940;53.002;6.930;2022-09-21T00:23:44;6.70;99.90
51914;DHT22;37940;53.002;6.930;2022-09-21T00:26:16;6.70;99.90
51914;DHT22;37940;53.002;6.930;2022-09-21T00:28:45;6.70;99.90
51914;DHT22;37940;53.002;6.930;2022-09-21T00:31:14;6.60;99.90
51914;DHT22;37940;53.002;6.930;2022-09-21T00:33:41;6.60;99.90
51914;DHT22;37940;53.002;6.930;2022-09-21T00:36:13;6.50;99.90
51914;DHT22;37940;53.002;6.930;2022-09-21T00:38:39;6.50;99.90
51914;DHT22;37940;53.002;6.930;2022-09-21T00:41:07;6.50;99.90
51914;DHT22;37940;53.002;6.930;2022-09-21T00:43:35;6.50;99.90
51914;DHT22;37940;53.002;6.930;2022-09-21T00:46:05;6.40;99.90
51914;DHT22;37940;53.002;6.930;2022-09-21T00:48:32;6.40;99.90
51914;DHT22;37940;53.002;6.930;2022-09-21T00:51:02;6.40;99.90
51914;DHT22;37940;53.002;6.930;2022-09-21T00:53:29;6.30;99.90
51914;DHT22;37940;53.002;6.930;2022-09-21T00:55:57;6.40;99.90
51914;DHT22;37940;53.002;6.930;2022-09-21T00:58:28;6.30;99.90
51914;DHT22;37940;53.002;6.930;2022-09-21T01:00:56;6.30;99.90
51914;DHT22;37940;53.002;6.930;2022-09-21T01:03:23;6.30;99.90
51914;DHT22;37940;53.002;6.930;2022-09-21T01:05:49;6.30;99.90
51914;DHT22;37940;53.002;6.930;2022-09-21T01:08:15;6.20;99.90
51914;DHT22;37940;53.002;6.930;2022-09-21T01:11:06;6.20;99.90
51914;DHT22;37940;53.002;6.930;2022-09-21T01:16:36;6.20;99.90
51914;DHT22;37940;53.002;6.930;2022-09-21T01:37:25;6.10;99.90
51914;DHT22;37940;53.002;6.930;2022-09-21T01:39:57;6.00;99.90
51914;DHT22;37940;53.002;6.930;2022-09-21T01:42:25;6.00;99.90
51914;DHT22;37940;53.002;6.930;2022-09-21T01:44:52;6.00;99.90
51914;DHT22;37940;53.002;6.930;2022-09-21T01:47:20;6.00;99.90
51914;DHT22;37940;53.002;6.930;2022-09-21T01:49:51;6.00;99.90
51914;DHT22;37940;53.002;6.930;2022-09-21T01:54:58;6.00;99.90
51914;DHT22;37940;53.002;6.930;2022-09-21T01:59:57;5.90;99.90
51914;DHT22;37940;53.002;6.930;2022-09-21T02:02:36;5.90;99.90
51914;DHT22;37940;53.002;6.930;2022-09-21T02:05:05;5.90;99.90
51914;DHT22;37940;53.002;6.930;2022-09-21T02:07:31;5.90;99.90
51914;DHT22;37940;53.002;6.930;2022-09-21T02:09:59;5.90;99.90
51914;DHT22;37940;53.002;6.930;2022-09-21T02:12:26;5.80;99.90
51914;DHT22;37940;53.002;6.930;2022-09-21T02:14:51;5.80;99.90
51914;DHT22;37940;53.002;6.930;2022-09-21T02:20:03;5.80;99.90
51914;DHT22;37940;53.002;6.930;2022-09-21T02:22:45;5.80;99.90
51914;DHT22;37940;53.002;6.930;2022-09-21T02:25:25;5.70;99.90
51914;DHT22;37940;53.002;6.930;2022-09-21T02:28:00;5.70;99.90
51914;DHT22;37940;53.002;6.930;2022-09-21T02:30:30;5.70;99.90
51914;DHT22;37940;53.002;6.930;2022-09-21T02:33:15;5.70;99.90
51914;DHT22;37940;53.002;6.930;2022-09-21T02:36:05;5.60;99.90
51914;DHT22;37940;53.002;6.930;2022-09-21T02:38:38;5.60;99.90
51914;DHT22;37940;53.002;6.930;2022-09-21T02:41:15;5.60;99.90
51914;DHT22;37940;53.002;6.930;2022-09-21T02:43:48;5.60;99.90
51914;DHT22;37940;53.002;6.930;2022-09-21T02:46:25;5.50;99.90
51914;DHT22;37940;53.002;6.930;2022-09-21T02:48:56;5.60;99.90
51914;DHT22;37940;53.002;6.930;2022-09-21T02:51:39;5.50;99.90
51914;DHT22;37940;53.002;6.930;2022-09-21T02:54:10;5.50;99.90
51914;DHT22;37940;53.002;6.930;2022-09-21T02:56:37;5.50;99.90
51914;DHT22;37940;53.002;6.930;2022-09-21T02:59:04;5.50;99.90
51914;DHT22;37940;53.002;6.930;2022-09-21T03:01:31;5.40;99.90
51914;DHT22;37940;53.002;6.930;2022-09-21T03:03:57;5.50;99.90
51914;DHT22;37940;53.002;6.930;2022-09-21T03:06:23;5.40;99.90
51914;DHT22;37940;53.002;6.930;2022-09-21T03:08:49;5.40;99.90
51914;DHT22;37940;53.002;6.930;2022-09-21T03:11:18;5.50;99.90
51914;DHT22;37940;53.002;6.930;2022-09-21T03:13:45;5.40;99.90
51914;DHT22;37940;53.002;6.930;2022-09-21T03:16:11;5.40;99.90
51914;DHT22;37940;53.002;6.930;2022-09-21T03:18:37;5.40;99.90
51914;DHT22;37940;53.002;6.930;2022-09-21T03:21:04;5.80;99.90
51914;DHT22;37940;53.002;6.930;2022-09-21T03:23:30;5.30;99.90
51914;DHT22;37940;53.002;6.930;2022-09-21T03:25:57;5.30;99.90
51914;DHT22;37940;53.002;6.930;2022-09-21T03:28:23;5.50;99.90
51914;DHT22;37940;53.002;6.930;2022-09-21T03:30:50;5.20;99.90
51914;DHT22;37940;53.002;6.930;2022-09-21T03:33:17;6.00;99.90
51914;DHT22;37940;53.002;6.930;2022-09-21T03:35:44;5.20;99.90
51914;DHT22;37940;53.002;6.930;2022-09-21T03:38:10;5.20;99.90
51914;DHT22;37940;53.002;6.930;2022-09-21T03:40:36;5.20;99.90
51914;DHT22;37940;53.002;6.930;2022-09-21T03:43:02;5.10;99.90
51914;DHT22;37940;53.002;6.930;2022-09-21T03:45:28;5.20;99.90
51914;DHT22;37940;53.002;6.930;2022-09-21T03:47:57;5.10;99.90
51914;DHT22;37940;53.002;6.930;2022-09-21T03:50:25;5.10;99.90
51914;DHT22;37940;53.002;6.930;2022-09-21T03:52:53;5.10;99.90
51914;DHT22;37940;53.002;6.930;2022-09-21T03:55:19;5.10;99.90
51914;DHT22;37940;53.002;6.930;2022-09-21T03:57:45;5.10;99.90
51914;DHT22;37940;53.002;6.930;2022-09-21T04:00:11;5.10;99.90
51914;DHT22;37940;53.002;6.930;2022-09-21T04:02:38;5.10;99.90
51914;DHT22;37940;53.002;6.930;2022-09-21T04:05:08;5.20;99.90
51914;DHT22;37940;53.002;6.930;2022-09-21T04:07:34;5.00;99.90
51914;DHT22;37940;53.002;6.930;2022-09-21T04:10:05;5.00;99.90
51914;DHT22;37940;53.002;6.930;2022-09-21T04:12:32;5.00;99.90
51914;DHT22;37940;53.002;6.930;2022-09-21T04:14:59;5.00;99.90
51914;DHT22;37940;53.002;6.930;2022-09-21T04:17:26;5.00;99.90
51914;DHT22;37940;53.002;6.930;2022-09-21T04:19:52;5.20;99.90
51914;DHT22;37940;53.002;6.930;2022-09-21T04:22:18;5.00;99.90
51914;DHT22;37940;53.002;6.930;2022-09-21T04:24:44;5.00;99.90
51914;DHT22;37940;53.002;6.930;2022-09-21T04:27:10;5.00;99.90
51914;DHT22;37940;53.002;6.930;2022-09-21T04:29:37;4.90;99.90
51914;DHT22;37940;53.002;6.930;2022-09-21T04:32:03;4.90;99.90
51914;DHT22;37940;53.002;6.930;2022-09-21T04:34:29;4.90;99.90
51914;DHT22;37940;53.002;6.930;2022-09-21T04:36:56;5.00;99.90
51914;DHT22;37940;53.002;6.930;2022-09-21T04:39:23;4.90;99.90
51914;DHT22;37940;53.002;6.930;2022-09-21T04:41:49;4.80;99.90
51914;DHT22;37940;53.002;6.930;2022-09-21T04:44:15;5.00;99.90
51914;DHT22;37940;53.002;6.930;2022-09-21T04:46:40;4.80;99.90
51914;DHT22;37940;53.002;6.930;2022-09-21T04:49:07;5.00;99.90
51914;DHT22;37940;53.002;6.930;2022-09-21T04:51:33;4.70;99.90
51914;DHT22;37940;53.002;6.930;2022-09-21T04:53:59;4.70;99.90
51914;DHT22;37940;53.002;6.930;2022-09-21T04:56:26;4.70;99.90
51914;DHT22;37940;53.002;6.930;2022-09-21T04:58:51;4.70;99.90
51914;DHT22;37940;53.002;6.930;2022-09-21T05:01:17;4.70;99.90
51914;DHT22;37940;53.002;6.930;2022-09-21T05:03:43;4.60;99.90
51914;DHT22;37940;53.002;6.930;2022-09-21T05:06:08;4.80;99.90
51914;DHT22;37940;53.002;6.930;2022-09-21T05:08:38;4.60;99.90
51914;DHT22;37940;53.002;6.930;2022-09-21T05:11:23;4.60;99.90
51914;DHT22;37940;53.002;6.930;2022-09-21T05:13:49;4.50;99.90
51914;DHT22;37940;53.002;6.930;2022-09-21T05:16:16;4.70;99.90
51914;DHT22;37940;53.002;6.930;2022-09-21T05:18:43;4.50;99.90
51914;DHT22;37940;53.002;6.930;2022-09-21T05:21:11;4.50;99.90
51914;DHT22;37940;53.002;6.930;2022-09-21T05:23:37;4.50;99.90
51914;DHT22;37940;53.002;6.930;2022-09-21T05:26:03;4.50;99.90
51914;DHT22;37940;53.002;6.930;2022-09-21T05:28:29;4.50;99.90
51914;DHT22;37940;53.002;6.930;2022-09-21T05:34:24;4.50;99.90
51914;DHT22;37940;53.002;6.930;2022-09-21T05:39:34;4.60;99.90
51914;DHT22;37940;53.002;6.930;2022-09-21T05:42:00;4.60;99.90
51914;DHT22;37940;53.002;6.930;2022-09-21T05:44:26;4.60;99.90
51914;DHT22;37940;53.002;6.930;2022-09-21T05:47:02;4.60;99.90
51914;DHT22;37940;53.002;6.930;2022-09-21T05:52:18;4.70;99.90
51914;DHT22;37940;53.002;6.930;2022-09-21T06:05:17;5.10;99.90
51914;DHT22;37940;53.002;6.930;2022-09-21T06:07:43;5.10;99.90
51914;DHT22;37940;53.002;6.930;2022-09-21T06:10:11;5.40;99.90
51914;DHT22;37940;53.002;6.930;2022-09-21T06:12:37;5.40;99.90
51914;DHT22;37940;53.002;6.930;2022-09-21T06:15:05;5.60;99.90
51914;DHT22;37940;53.002;6.930;2022-09-21T06:17:32;5.70;99.90
51914;DHT22;37940;53.002;6.930;2022-09-21T06:19:57;5.90;99.90
51914;DHT22;37940;53.002;6.930;2022-09-21T06:22:23;6.10;99.90
51914;DHT22;37940;53.002;6.930;2022-09-21T06:24:49;6.20;99.90
51914;DHT22;37940;53.002;6.930;2022-09-21T06:27:15;6.30;99.90
51914;DHT22;37940;53.002;6.930;2022-09-21T06:29:40;6.30;99.90
51914;DHT22;37940;53.002;6.930;2022-09-21T06:32:06;6.50;99.90
51914;DHT22;37940;53.002;6.930;2022-09-21T06:34:31;6.40;99.90
51914;DHT22;37940;53.002;6.930;2022-09-21T06:36:57;6.50;99.90
51914;DHT22;37940;53.002;6.930;2022-09-21T06:39:23;6.60;99.90
51914;DHT22;37940;53.002;6.930;2022-09-21T06:41:48;6.70;99.90
51914;DHT22;37940;53.002;6.930;2022-09-21T06:44:16;6.70;99.90
51914;DHT22;37940;53.002;6.930;2022-09-21T06:46:41;6.70;99.90
51914;DHT22;37940;53.002;6.930;2022-09-21T06:49:07;6.80;99.90
51914;DHT22;37940;53.002;6.930;2022-09-21T06:51:33;6.90;99.90
51914;DHT22;37940;53.002;6.930;2022-09-21T06:53:59;6.90;99.90
51914;DHT22;37940;53.002;6.930;2022-09-21T06:56:25;7.10;99.90
51914;DHT22;37940;53.002;6.930;2022-09-21T06:58:51;7.10;99.90
51914;DHT22;37940;53.002;6.930;2022-09-21T07:01:17;7.20;99.90
51914;DHT22;37940;53.002;6.930;2022-09-21T07:03:44;7.20;99.90
51914;DHT22;37940;53.002;6.930;2022-09-21T07:06:12;7.40;99.90
51914;DHT22;37940;53.002;6.930;2022-09-21T07:08:43;7.40;99.90
51914;DHT22;37940;53.002;6.930;2022-09-21T07:11:10;7.50;99.90
51914;DHT22;37940;53.002;6.930;2022-09-21T07:13:36;7.60;99.90
51914;DHT22;37940;53.002;6.930;2022-09-21T07:16:07;7.70;99.90
51914;DHT22;37940;53.002;6.930;2022-09-21T07:18:34;7.80;99.90
51914;DHT22;37940;53.002;6.930;2022-09-21T07:21:04;8.00;99.90
51914;DHT22;37940;53.002;6.930;2022-09-21T07:23:30;8.00;99.90
51914;DHT22;37940;53.002;6.930;2022-09-21T07:26:10;8.40;99.90
51914;DHT22;37940;53.002;6.930;2022-09-21T07:28:36;8.20;99.90
51914;DHT22;37940;53.002;6.930;2022-09-21T07:31:10;8.20;99.90
51914;DHT22;37940;53.002;6.930;2022-09-21T07:33:36;8.40;99.90
51914;DHT22;37940;53.002;6.930;2022-09-21T07:36:02;8.40;99.90
51914;DHT22;37940;53.002;6.930;2022-09-21T07:38:35;8.50;99.90
51914;DHT22;37940;53.002;6.930;2022-09-21T07:41:02;8.60;99.90
51914;DHT22;37940;53.002;6.930;2022-09-21T07:43:28;8.80;99.90
51914;DHT22;37940;53.002;6.930;2022-09-21T07:45:54;8.80;99.90
51914;DHT22;37940;53.002;6.930;2022-09-21T07:48:22;8.90;99.90
51914;DHT22;37940;53.002;6.930;2022-09-21T07:50:49;9.00;99.90
51914;DHT22;37940;53.002;6.930;2022-09-21T07:53:15;9.20;99.90
51914;DHT22;37940;53.002;6.930;2022-09-21T07:55:41;9.20;99.90
51914;DHT22;37940;53.002;6.930;2022-09-21T07:58:07;9.30;99.90
51914;DHT22;37940;53.002;6.930;2022-09-21T08:00:51;9.40;99.90
51914;DHT22;37940;53.002;6.930;2022-09-21T08:03:17;9.50;99.90
51914;DHT22;37940;53.002;6.930;2022-09-21T08:05:42;9.70;99.90
51914;DHT22;37940;53.002;6.930;2022-09-21T08:08:08;9.80;99.90
51914;DHT22;37940;53.002;6.930;2022-09-21T08:10:34;9.90;99.90
51914;DHT22;37940;53.002;6.930;2022-09-21T08:13:00;9.90;99.90
51914;DHT22;37940;53.002;6.930;2022-09-21T08:15:26;10.00;99.90
51914;DHT22;37940;53.002;6.930;2022-09-21T08:17:55;10.20;99.90
51914;DHT22;37940;53.002;6.930;2022-09-21T08:20:23;10.30;99.90
51914;DHT22;37940;53.002;6.930;2022-09-21T08:22:49;10.40;99.90
51914;DHT22;37940;53.002;6.930;2022-09-21T08:25:15;10.50;99.90
51914;DHT22;37940;53.002;6.930;2022-09-21T08:27:40;10.60;99.90
51914;DHT22;37940;53.002;6.930;2022-09-21T08:30:07;10.70;99.90
51914;DHT22;37940;53.002;6.930;2022-09-21T08:32:33;10.90;99.90
51914;DHT22;37940;53.002;6.930;2022-09-21T08:34:59;11.10;99.90
51914;DHT22;37940;53.002;6.930;2022-09-21T08:37:27;11.30;99.90
51914;DHT22;37940;53.002;6.930;2022-09-21T08:39:53;11.30;99.90
51914;DHT22;37940;53.002;6.930;2022-09-21T08:45:08;11.50;99.90
51914;DHT22;37940;53.002;6.930;2022-09-21T08:47:40;11.60;99.90
51914;DHT22;37940;53.002;6.930;2022-09-21T08:50:28;11.70;99.90
51914;DHT22;37940;53.002;6.930;2022-09-21T08:53:03;11.80;99.90
51914;DHT22;37940;53.002;6.930;2022-09-21T08:55:29;11.80;99.90
51914;DHT22;37940;53.002;6.930;2022-09-21T08:57:55;11.90;99.90
51914;DHT22;37940;53.002;6.930;2022-09-21T09:00:21;12.10;99.90
51914;DHT22;37940;53.002;6.930;2022-09-21T09:03:11;12.10;99.90
51914;DHT22;37940;53.002;6.930;2022-09-21T09:05:54;12.30;99.90
51914;DHT22;37940;53.002;6.930;2022-09-21T09:08:55;12.40;99.90
51914;DHT22;37940;53.002;6.930;2022-09-21T09:14:27;12.70;99.90
51914;DHT22;37940;53.002;6.930;2022-09-21T09:19:49;13.00;99.90
51914;DHT22;37940;53.002;6.930;2022-09-21T09:22:21;13.20;99.90
51914;DHT22;37940;53.002;6.930;2022-09-21T09:24:50;13.30;99.90
51914;DHT22;37940;53.002;6.930;2022-09-21T09:27:31;13.50;99.90
51914;DHT22;37940;53.002;6.930;2022-09-21T09:30:14;13.70;99.90
51914;DHT22;37940;53.002;6.930;2022-09-21T09:33:05;13.90;99.90
51914;DHT22;37940;53.002;6.930;2022-09-21T09:38:39;14.50;99.90
51914;DHT22;37940;53.002;6.930;2022-09-21T09:50:07;14.80;99.90
51914;DHT22;37940;53.002;6.930;2022-09-21T09:52:33;14.70;99.90
51914;DHT22;37940;53.002;6.930;2022-09-21T09:55:00;14.60;99.90
51914;DHT22;37940;53.002;6.930;2022-09-21T09:57:35;14.90;99.90
51914;DHT22;37940;53.002;6.930;2022-09-21T10:00:05;15.20;99.90
51914;DHT22;37940;53.002;6.930;2022-09-21T10:02:45;15.50;99.90
51914;DHT22;37940;53.002;6.930;2022-09-21T10:07:48;16.10;99.90
51914;DHT22;37940;53.002;6.930;2022-09-21T10:10:34;16.30;99.90
51914;DHT22;37940;53.002;6.930;2022-09-21T10:13:27;16.50;99.90
51914;DHT22;37940;53.002;6.930;2022-09-21T10:18:34;16.80;99.90
51914;DHT22;37940;53.002;6.930;2022-09-21T10:21:02;16.80;99.90
51914;DHT22;37940;53.002;6.930;2022-09-21T10:23:30;16.80;99.90
51914;DHT22;37940;53.002;6.930;2022-09-21T10:26:08;16.70;99.90
51914;DHT22;37940;53.002;6.930;2022-09-21T10:28:35;16.70;99.90
51914;DHT22;37940;53.002;6.930;2022-09-21T10:31:11;16.70;99.90
51914;DHT22;37940;53.002;6.930;2022-09-21T10:36:35;16.70;99.90
51914;DHT22;37940;53.002;6.930;2022-09-21T10:39:30;16.60;99.90
51914;DHT22;37940;53.002;6.930;2022-09-21T10:42:13;16.40;99.90
51914;DHT22;37940;53.002;6.930;2022-09-21T10:44:42;16.20;99.90
51914;DHT22;37940;53.002;6.930;2022-09-21T10:47:41;16.00;99.90
51914;DHT22;37940;53.002;6.930;2022-09-21T10:50:28;15.80;99.90
51914;DHT22;37940;53.002;6.930;2022-09-21T10:55:43;15.80;99.90
51914;DHT22;37940;53.002;6.930;2022-09-21T10:58:11;15.70;99.90
51914;DHT22;37940;53.002;6.930;2022-09-21T11:00:45;15.70;99.90
51914;DHT22;37940;53.002;6.930;2022-09-21T11:06:33;16.10;99.90
51914;DHT22;37940;53.002;6.930;2022-09-21T11:11:48;16.50;99.90
51914;DHT22;37940;53.002;6.930;2022-09-21T11:14:33;16.70;99.90
51914;DHT22;37940;53.002;6.930;2022-09-21T11:19:51;16.80;99.90
51914;DHT22;37940;53.002;6.930;2022-09-21T11:27:55;17.10;99.90
51914;DHT22;37940;53.002;6.930;2022-09-21T11:30:29;17.20;99.90
51914;DHT22;37940;53.002;6.930;2022-09-21T11:33:15;17.20;99.90
51914;DHT22;37940;53.002;6.930;2022-09-21T11:36:24;17.30;99.90
51914;DHT22;37940;53.002;6.930;2022-09-21T11:39:02;17.50;99.90
51914;DHT22;37940;53.002;6.930;2022-09-21T11:44:04;17.60;99.90
51914;DHT22;37940;53.002;6.930;2022-09-21T11:46:39;17.60;99.90
51914;DHT22;37940;53.002;6.930;2022-09-21T11:55:24;17.80;99.90
51914;DHT22;37940;53.002;6.930;2022-09-21T12:12:07;18.20;99.90
51914;DHT22;37940;53.002;6.930;2022-09-21T12:20:17;17.90;99.90
51914;DHT22;37940;53.002;6.930;2022-09-21T12:22:47;17.90;99.90
51914;DHT22;37940;53.002;6.930;2022-09-21T12:25:48;18.00;99.90
51914;DHT22;37940;53.002;6.930;2022-09-21T12:30:51;18.40;99.90
51914;DHT22;37940;53.002;6.930;2022-09-21T12:33:31;18.50;99.90
51914;DHT22;37940;53.002;6.930;2022-09-21T12:36:06;18.50;99.90
51914;DHT22;37940;53.002;6.930;2022-09-21T12:38:54;18.70;99.90
51914;DHT22;37940;53.002;6.930;2022-09-21T12:41:27;18.70;99.90
51914;DHT22;37940;53.002;6.930;2022-09-21T12:49:38;18.80;99.90
51914;DHT22;37940;53.002;6.930;2022-09-21T12:52:05;18.80;99.90
51914;DHT22;37940;53.002;6.930;2022-09-21T12:54:41;18.80;99.90
51914;DHT22;37940;53.002;6.930;2022-09-21T12:57:56;18.90;99.90
51914;DHT22;37940;53.002;6.930;2022-09-21T13:00:21;18.80;99.90
51914;DHT22;37940;53.002;6.930;2022-09-21T13:06:00;18.70;99.90
51914;DHT22;37940;53.002;6.930;2022-09-21T13:08:35;18.60;99.90
51914;DHT22;37940;53.002;6.930;2022-09-21T13:11:04;18.60;99.90
51914;DHT22;37940;53.002;6.930;2022-09-21T13:13:43;18.70;99.90
51914;DHT22;37940;53.002;6.930;2022-09-21T13:16:39;18.70;99.90
51914;DHT22;37940;53.002;6.930;2022-09-21T13:21:43;18.60;99.90
51914;DHT22;37940;53.002;6.930;2022-09-21T13:24:26;18.60;99.90
51914;DHT22;37940;53.002;6.930;2022-09-21T13:26:56;18.60;99.90
51914;DHT22;37940;53.002;6.930;2022-09-21T13:29:30;18.70;99.90
51914;DHT22;37940;53.002;6.930;2022-09-21T13:32:21;18.70;99.90
51914;DHT22;37940;53.002;6.930;2022-09-21T13:34:47;18.70;99.90
51914;DHT22;37940;53.002;6.930;2022-09-21T13:44:55;18.70;99.90
51914;DHT22;37940;53.002;6.930;2022-09-21T13:47:33;18.70;99.90
51914;DHT22;37940;53.002;6.930;2022-09-21T13:52:54;18.70;99.90
51914;DHT22;37940;53.002;6.930;2022-09-21T13:58:03;18.70;99.90
51914;DHT22;37940;53.002;6.930;2022-09-21T14:00:40;18.70;99.70
51914;DHT22;37940;53.002;6.930;2022-09-21T14:03:25;18.70;99.90
51914;DHT22;37940;53.002;6.930;2022-09-21T14:06:00;18.70;99.90
51914;DHT22;37940;53.002;6.930;2022-09-21T14:08:31;18.70;99.50
51914;DHT22;37940;53.002;6.930;2022-09-21T14:11:02;18.70;99.10
51914;DHT22;37940;53.002;6.930;2022-09-21T14:13:33;18.60;99.30
51914;DHT22;37940;53.002;6.930;2022-09-21T14:16:31;18.70;99.20
51914;DHT22;37940;53.002;6.930;2022-09-21T14:24:48;18.60;99.90
51914;DHT22;37940;53.002;6.930;2022-09-21T14:27:32;18.60;99.70
51914;DHT22;37940;53.002;6.930;2022-09-21T14:30:21;18.60;99.90
51914;DHT22;37940;53.002;6.930;2022-09-21T14:35:30;18.60;99.30
51914;DHT22;37940;53.002;6.930;2022-09-21T14:40:48;18.60;99.80
51914;DHT22;37940;53.002;6.930;2022-09-21T14:43:19;18.50;99.90
51914;DHT22;37940;53.002;6.930;2022-09-21T14:48:58;18.20;99.60
51914;DHT22;37940;53.002;6.930;2022-09-21T15:02:31;18.20;99.90
51914;DHT22;37940;53.002;6.930;2022-09-21T15:16:50;17.90;99.60
51914;DHT22;37940;53.002;6.930;2022-09-21T15:19:32;17.90;99.90
51914;DHT22;37940;53.002;6.930;2022-09-21T15:22:28;17.90;99.90
51914;DHT22;37940;53.002;6.930;2022-09-21T15:25:21;17.80;99.90
51914;DHT22;37940;53.002;6.930;2022-09-21T15:27:48;17.50;99.90
51914;DHT22;37940;53.002;6.930;2022-09-21T15:30:23;17.30;99.90
51914;DHT22;37940;53.002;6.930;2022-09-21T15:32:55;17.10;99.90
51914;DHT22;37940;53.002;6.930;2022-09-21T15:35:30;16.90;99.90
51914;DHT22;37940;53.002;6.930;2022-09-21T15:37:58;16.70;99.90
51914;DHT22;37940;53.002;6.930;2022-09-21T15:45:27;16.40;99.90
51914;DHT22;37940;53.002;6.930;2022-09-21T15:47:54;16.50;99.90
51914;DHT22;37940;53.002;6.930;2022-09-21T15:50:20;16.50;99.90
51914;DHT22;37940;53.002;6.930;2022-09-21T15:53:02;16.50;99.90
51914;DHT22;37940;53.002;6.930;2022-09-21T15:55:29;16.60;99.90
51914;DHT22;37940;53.002;6.930;2022-09-21T15:57:58;16.60;99.90
51914;DHT22;37940;53.002;6.930;2022-09-21T16:00:26;16.60;99.90
51914;DHT22;37940;53.002;6.930;2022-09-21T16:05:49;16.50;99.90
51914;DHT22;37940;53.002;6.930;2022-09-21T16:10:44;16.40;99.90
51914;DHT22;37940;53.002;6.930;2022-09-21T16:13:19;16.40;99.90
51914;DHT22;37940;53.002;6.930;2022-09-21T16:16:07;16.30;99.90
51914;DHT22;37940;53.002;6.930;2022-09-21T16:18:47;16.20;99.90
51914;DHT22;37940;53.002;6.930;2022-09-21T16:21:23;16.10;99.90
51914;DHT22;37940;53.002;6.930;2022-09-21T16:23:56;16.00;99.90
51914;DHT22;37940;53.002;6.930;2022-09-21T16:26:35;15.90;99.90
51914;DHT22;37940;53.002;6.930;2022-09-21T16:31:34;15.70;99.90
51914;DHT22;37940;53.002;6.930;2022-09-21T16:34:03;15.60;99.90
51914;DHT22;37940;53.002;6.930;2022-09-21T16:36:33;15.60;99.90
51914;DHT22;37940;53.002;6.930;2022-09-21T16:39:00;15.50;99.90
51914;DHT22;37940;53.002;6.930;2022-09-21T16:41:44;15.40;99.90
51914;DHT22;37940;53.002;6.930;2022-09-21T16:44:17;15.40;99.90
51914;DHT22;37940;53.002;6.930;2022-09-21T16:46:54;15.20;99.90
51914;DHT22;37940;53.002;6.930;2022-09-21T16:49:22;15.10;99.90
51914;DHT22;37940;53.002;6.930;2022-09-21T16:51:53;15.10;99.90
51914;DHT22;37940;53.002;6.930;2022-09-21T16:54:20;15.00;99.90
51914;DHT22;37940;53.002;6.930;2022-09-21T16:56:50;14.90;99.90
51914;DHT22;37940;53.002;6.930;2022-09-21T16:59:17;14.80;99.90
51914;DHT22;37940;53.002;6.930;2022-09-21T17:01:49;14.70;99.90
51914;DHT22;37940;53.002;6.930;2022-09-21T17:04:21;14.60;99.90
51914;DHT22;37940;53.002;6.930;2022-09-21T17:06:48;14.60;99.90
51914;DHT22;37940;53.002;6.930;2022-09-21T17:09:19;14.50;99.90
51914;DHT22;37940;53.002;6.930;2022-09-21T17:11:46;14.40;99.90
51914;DHT22;37940;53.002;6.930;2022-09-21T17:14:13;14.40;99.90
51914;DHT22;37940;53.002;6.930;2022-09-21T17:16:55;14.30;99.90
51914;DHT22;37940;53.002;6.930;2022-09-21T17:19:22;14.20;99.90
51914;DHT22;37940;53.002;6.930;2022-09-21T17:21:47;14.00;99.90
51914;DHT22;37940;53.002;6.930;2022-09-21T17:24:14;13.90;99.90
51914;DHT22;37940;53.002;6.930;2022-09-21T17:26:41;13.80;99.90
51914;DHT22;37940;53.002;6.930;2022-09-21T17:29:21;13.80;99.90
51914;DHT22;37940;53.002;6.930;2022-09-21T17:31:49;13.60;99.90
51914;DHT22;37940;53.002;6.930;2022-09-21T17:34:18;13.50;99.90
51914;DHT22;37940;53.002;6.930;2022-09-21T17:36:45;13.40;99.90
51914;DHT22;37940;53.002;6.930;2022-09-21T17:39:11;13.20;99.90
51914;DHT22;37940;53.002;6.930;2022-09-21T17:41:53;13.10;99.90
51914;DHT22;37940;53.002;6.930;2022-09-21T17:47:24;12.90;99.90
51914;DHT22;37940;53.002;6.930;2022-09-21T17:52:47;12.60;99.90
51914;DHT22;37940;53.002;6.930;2022-09-21T17:55:32;12.50;99.90
51914;DHT22;37940;53.002;6.930;2022-09-21T18:01:05;12.30;99.90
51914;DHT22;37940;53.002;6.930;2022-09-21T18:03:36;12.20;99.90
51914;DHT22;37940;53.002;6.930;2022-09-21T18:06:10;12.10;99.90
51914;DHT22;37940;53.002;6.930;2022-09-21T18:08:39;11.90;99.90
51914;DHT22;37940;53.002;6.930;2022-09-21T18:23:17;11.50;99.90
51914;DHT22;37940;53.002;6.930;2022-09-21T18:25:44;11.40;99.90
51914;DHT22;37940;53.002;6.930;2022-09-21T18:28:26;11.30;99.90
51914;DHT22;37940;53.002;6.930;2022-09-21T18:37:25;11.10;99.90
51914;DHT22;37940;53.002;6.930;2022-09-21T18:45:46;10.90;99.90
51914;DHT22;37940;53.002;6.930;2022-09-21T18:56:13;10.60;99.90
51914;DHT22;37940;53.002;6.930;2022-09-21T18:58:39;10.60;99.90
51914;DHT22;37940;53.002;6.930;2022-09-21T19:01:12;10.50;99.90
51914;DHT22;37940;53.002;6.930;2022-09-21T19:03:39;10.50;99.90
51914;DHT22;37940;53.002;6.930;2022-09-21T19:17:35;10.20;99.90
51914;DHT22;37940;53.002;6.930;2022-09-21T19:26:16;10.10;99.90
51914;DHT22;37940;53.002;6.930;2022-09-21T19:31:18;10.00;99.90
51914;DHT22;37940;53.002;6.930;2022-09-21T19:33:44;10.00;99.90
51914;DHT22;37940;53.002;6.930;2022-09-21T19:36:11;9.90;99.90
51914;DHT22;37940;53.002;6.930;2022-09-21T19:38:37;9.90;99.90
51914;DHT22;37940;53.002;6.930;2022-09-21T19:41:27;9.90;99.90
51914;DHT22;37940;53.002;6.930;2022-09-21T19:44:04;9.90;99.90
51914;DHT22;37940;53.002;6.930;2022-09-21T19:46:58;9.80;99.90
51914;DHT22;37940;53.002;6.930;2022-09-21T19:49:35;9.80;99.90
51914;DHT22;37940;53.002;6.930;2022-09-21T19:52:04;9.70;99.90
51914;DHT22;37940;53.002;6.930;2022-09-21T19:54:30;9.70;99.90
51914;DHT22;37940;53.002;6.930;2022-09-21T19:57:21;9.60;99.90
51914;DHT22;37940;53.002;6.930;2022-09-21T20:00:13;9.60;99.90
51914;DHT22;37940;53.002;6.930;2022-09-21T20:02:47;9.50;99.90
51914;DHT22;37940;53.002;6.930;2022-09-21T20:13:22;9.30;99.90
51914;DHT22;37940;53.002;6.930;2022-09-21T20:21:47;9.10;99.90
51914;DHT22;37940;53.002;6.930;2022-09-21T20:24:29;9.10;99.90
51914;DHT22;37940;53.002;6.930;2022-09-21T20:26:56;9.00;99.90
51914;DHT22;37940;53.002;6.930;2022-09-21T20:29:22;9.00;99.90
51914;DHT22;37940;53.002;6.930;2022-09-21T20:31:49;8.90;99.90
51914;DHT22;37940;53.002;6.930;2022-09-21T20:34:16;8.90;99.90
51914;DHT22;37940;53.002;6.930;2022-09-21T20:36:42;8.80;99.90
51914;DHT22;37940;53.002;6.930;2022-09-21T20:39:08;8.80;99.90
51914;DHT22;37940;53.002;6.930;2022-09-21T20:41:34;8.70;99.90